Wetterdaten: Woche 15.02.16 - 21.02.16 (KW7)
Datum Zeit Temp. A. Feuchte A. Luftdruck Regen Wind Richtung Taupunkt Windchill Windben
15.02.2016 00:00 5,6 C 84 % 996,5 hPa 0,0 l/m 1,3 km/h N 3,0 C 5,6 C 8,4 km/h
15.02.2016 01:00 5,3 C 84 % 997,2 hPa 0,0 l/m 1,0 km/h N 2,8 C 5,3 C 7,2 km/h
15.02.2016 02:00 6,8 C 80 % 998,3 hPa 0,0 l/m 6,3 km/h N 3,7 C 6,2 C 17,7 km/h
15.02.2016 03:00 7,1 C 79 % 999,1 hPa 0,0 l/m 8,4 km/h N 3,7 C 5,4 C 18,5 km/h
15.02.2016 04:00 7,1 C 79 % 1000,2 hPa 0,0 l/m 9,3 km/h N 3,8 C 5,0 C 21,3 km/h
15.02.2016 05:00 6,8 C 79 % 1001,2 hPa 0,0 l/m 8,5 km/h N 3,4 C 5,2 C 21,3 km/h
15.02.2016 06:00 6,5 C 79 % 1002,0 hPa 0,0 l/m 6,4 km/h N 3,1 C 6,3 C 15,7 km/h
15.02.2016 07:00 6,5 C 79 % 1003,3 hPa 0,0 l/m 7,6 km/h N 3,0 C 5,5 C 17,7 km/h
15.02.2016 08:00 6,6 C 78 % 1004,3 hPa 0,0 l/m 6,4 km/h N 3,0 C 6,6 C 19,3 km/h
15.02.2016 09:00 6,6 C 78 % 1004,8 hPa 0,0 l/m 8,0 km/h N 2,9 C 5,2 C 24,1 km/h
15.02.2016 10:00 6,9 C 75 % 1005,5 hPa 0,0 l/m 9,7 km/h N 2,8 C 4,4 C 23,3 km/h
15.02.2016 11:00 7,3 C 72 % 1006,0 hPa 0,0 l/m 11,3 km/h N 2,6 C 3,9 C 26,5 km/h
15.02.2016 12:00 7,8 C 70 % 1006,5 hPa 0,0 l/m 10,5 km/h N 2,6 C 4,9 C 28,2 km/h
15.02.2016 13:00 8,1 C 69 % 1007,5 hPa 0,0 l/m 8,9 km/h N 2,8 C 6,3 C 23,3 km/h
15.02.2016 14:00 8,3 C 70 % 1008,3 hPa 0,0 l/m 9,7 km/h N 3,0 C 5,9 C 24,9 km/h
15.02.2016 15:00 7,9 C 71 % 1009,4 hPa 0,0 l/m 9,7 km/h N 2,9 C 5,5 C 23,3 km/h
15.02.2016 16:00 7,9 C 71 % 1010,5 hPa 0,0 l/m 9,7 km/h N 2,9 C 5,4 C 24,1 km/h
15.02.2016 17:00 7,7 C 72 % 1012,0 hPa 0,0 l/m 7,2 km/h N 3,0 C 7,1 C 22,5 km/h
15.02.2016 18:00 7,4 C 75 % 1013,5 hPa 0,0 l/m 5,6 km/h N 3,1 C 7,4 C 18,5 km/h
15.02.2016 19:00 7,4 C 73 % 1014,5 hPa 0,0 l/m 4,8 km/h N 2,9 C 7,4 C 16,9 km/h
15.02.2016 20:00 7,6 C 73 % 1015,3 hPa 0,0 l/m 7,2 km/h N 3,0 C 6,9 C 18,5 km/h
15.02.2016 21:00 7,6 C 73 % 1016,6 hPa 0,0 l/m 5,6 km/h N 3,0 C 7,6 C 14,5 km/h
15.02.2016 22:00 7,4 C 72 % 1017,7 hPa 0,0 l/m 4,8 km/h N 2,7 C 7,4 C 16,1 km/h
15.02.2016 23:00 7,3 C 71 % 1018,6 hPa 0,0 l/m 3,2 km/h N 2,3 C 7,3 C 10,5 km/h
16.02.2016 00:00 6,9 C 71 % 1020,0 hPa 0,0 l/m 1,6 km/h N 2,0 C 6,9 C 7,2 km/h
16.02.2016 01:00 6,7 C 72 % 1021,0 hPa 0,0 l/m 3,2 km/h N 1,9 C 6,7 C 12,9 km/h
16.02.2016 02:00 6,5 C 70 % 1022,4 hPa 0,0 l/m 4,0 km/h N 1,4 C 6,5 C 13,7 km/h
16.02.2016 03:00 6,2 C 71 % 1023,4 hPa 0,0 l/m 4,8 km/h N 1,3 C 6,2 C 15,3 km/h
16.02.2016 04:00 5,3 C 74 % 1024,4 hPa 0,0 l/m 4,8 km/h N 1,0 C 5,3 C 18,5 km/h
16.02.2016 05:00 4,9 C 74 % 1025,4 hPa 0,0 l/m 7,2 km/h N 0,5 C 4,2 C 21,7 km/h
16.02.2016 06:00 4,6 C 74 % 1026,4 hPa 0,0 l/m 6,4 km/h N 0,3 C 3,8 C 17,7 km/h
16.02.2016 07:00 4,4 C 75 % 1027,4 hPa 0,0 l/m 6,4 km/h N 0,4 C 4,4 C 16,9 km/h
16.02.2016 08:00 4,4 C 76 % 1028,3 hPa 0,0 l/m 7,2 km/h N 0,4 C 3,7 C 21,7 km/h
16.02.2016 09:00 4,6 C 76 % 1029,2 hPa 0,0 l/m 7,2 km/h N 0,7 C 3,9 C 20,1 km/h
16.02.2016 10:00 5,8 C 72 % 1029,8 hPa 0,0 l/m 7,2 km/h N 1,1 C 5,1 C 18,5 km/h
16.02.2016 11:00 6,2 C 70 % 1030,6 hPa 0,0 l/m 7,2 km/h N 1,1 C 5,6 C 18,5 km/h
16.02.2016 12:00 6,4 C 70 % 1030,6 hPa 0,0 l/m 6,4 km/h N 1,2 C 6,4 C 16,1 km/h
16.02.2016 13:00 6,9 C 68 % 1030,9 hPa 0,0 l/m 5,6 km/h N 1,3 C 6,9 C 16,1 km/h
16.02.2016 14:00 6,8 C 68 % 1031,4 hPa 0,0 l/m 4,8 km/h N 1,3 C 6,8 C 13,7 km/h
16.02.2016 15:00 6,8 C 68 % 1031,7 hPa 0,0 l/m 2,4 km/h N 1,3 C 6,8 C 9,6 km/h
16.02.2016 16:00 6,6 C 69 % 1031,7 hPa 0,0 l/m 3,2 km/h N 1,4 C 6,6 C 10,5 km/h
16.02.2016 17:00 6,4 C 70 % 1032,2 hPa 0,0 l/m 3,2 km/h N 1,3 C 6,4 C 9,6 km/h
16.02.2016 18:00 6,1 C 72 % 1032,8 hPa 0,0 l/m 3,2 km/h N 1,3 C 6,1 C 13,7 km/h
16.02.2016 19:00 5,2 C 74 % 1033,2 hPa 0,0 l/m 2,4 km/h N 0,9 C 5,2 C 13,7 km/h
16.02.2016 20:00 4,3 C 74 % 1033,6 hPa 0,0 l/m 4,8 km/h N -0,0 C 4,3 C 16,9 km/h
16.02.2016 21:00 4,1 C 75 % 1033,4 hPa 0,0 l/m 4,8 km/h N 0,0 C 4,1 C 16,1 km/h
16.02.2016 22:00 3,8 C 76 % 1033,3 hPa 0,0 l/m 4,8 km/h N -0,0 C 3,8 C 15,3 km/h
16.02.2016 23:00 3,8 C 76 % 1032,8 hPa 0,0 l/m 4,0 km/h N -0,1 C 3,8 C 13,7 km/h
17.02.2016 00:00 3,5 C 78 % 1032,0 hPa 0,0 l/m 4,8 km/h N -0,1 C 3,5 C 16,1 km/h
17.02.2016 01:00 3,3 C 80 % 1031,1 hPa 0,0 l/m 1,6 km/h N 0,1 C 3,3 C 9,7 km/h
17.02.2016 02:00 3,2 C 81 % 1030,1 hPa 0,0 l/m 1,6 km/h N 0,1 C 3,2 C 8,9 km/h
17.02.2016 03:00 3,0 C 82 % 1029,3 hPa 0,0 l/m 0,0 km/h N 0,1 C 3,0 C 4,8 km/h
17.02.2016 04:00 2,8 C 83 % 1028,2 hPa 0,3 l/m 0,0 km/h N 0,3 C 2,8 C 2,4 km/h
17.02.2016 05:00 2,7 C 83 % 1027,7 hPa 0,3 l/m 0,0 km/h N 0,1 C 2,7 C 2,4 km/h
17.02.2016 06:00 2,5 C 84 % 1026,5 hPa 0,3 l/m 0,0 km/h N 0,1 C 2,5 C 0,0 km/h
17.02.2016 07:00 2,5 C 84 % 1026,8 hPa 0,0 l/m 0,0 km/h N 0,1 C 2,5 C 3,2 km/h
17.02.2016 08:00 2,5 C 84 % 1025,9 hPa 0,3 l/m 0,0 km/h N 0,1 C 2,5 C 1,6 km/h
17.02.2016 09:00 2,5 C 84 % 1024,7 hPa 0,8 l/m 0,0 km/h N 0,0 C 2,5 C 1,6 km/h
17.02.2016 10:00 2,5 C 84 % 1023,5 hPa 0,3 l/m 0,0 km/h N 0,0 C 2,5 C 1,6 km/h
17.02.2016 11:00 2,8 C 83 % 1022,8 hPa 0,0 l/m 0,0 km/h N 0,3 C 2,8 C 4,8 km/h
17.02.2016 12:00 3,1 C 83 % 1021,5 hPa 0,3 l/m 1,6 km/h N 0,5 C 3,1 C 8,9 km/h
17.02.2016 13:00 3,6 C 83 % 1019,5 hPa 0,0 l/m 3,2 km/h N 1,0 C 3,6 C 12,1 km/h
17.02.2016 14:00 4,3 C 83 % 1018,5 hPa 0,0 l/m 5,6 km/h N 1,6 C 4,3 C 20,1 km/h
17.02.2016 15:00 4,3 C 83 % 1018,5 hPa 0,0 l/m 4,8 km/h N 1,7 C 4,3 C 20,1 km/h
17.02.2016 16:00 4,4 C 83 % 1018,3 hPa 0,0 l/m 1,6 km/h N 1,8 C 4,4 C 9,7 km/h
17.02.2016 17:00 4,4 C 84 % 1018,0 hPa 0,0 l/m 1,6 km/h N 1,9 C 4,4 C 12,9 km/h
17.02.2016 18:00 4,3 C 84 % 1018,3 hPa 0,0 l/m 0,0 km/h N 1,8 C 4,3 C 9,6 km/h
17.02.2016 19:00 4,2 C 83 % 1018,5 hPa 0,0 l/m 0,0 km/h N 1,6 C 4,2 C 7,2 km/h
17.02.2016 20:00 4,3 C 83 % 1018,5 hPa 0,0 l/m 0,0 km/h N 1,6 C 4,3 C 5,6 km/h
17.02.2016 21:00 4,3 C 83 % 1018,8 hPa 0,0 l/m 0,0 km/h N 1,6 C 4,3 C 4,8 km/h
17.02.2016 22:00 4,1 C 83 % 1018,3 hPa 0,0 l/m 0,0 km/h N 1,5 C 4,1 C 4,8 km/h
17.02.2016 23:00 3,8 C 84 % 1018,2 hPa 0,0 l/m 0,0 km/h N 1,4 C 3,8 C 0,8 km/h
18.02.2016 00:00 3,7 C 84 % 1018,3 hPa 0,0 l/m 0,0 km/h N 1,2 C 3,7 C 4,8 km/h
18.02.2016 01:00 3,1 C 84 % 1018,2 hPa 0,0 l/m 0,0 km/h N 0,6 C 3,1 C 0,0 km/h
18.02.2016 02:00 2,8 C 84 % 1018,2 hPa 0,0 l/m 0,0 km/h N 0,4 C 2,8 C 0,0 km/h
18.02.2016 03:00 2,8 C 83 % 1017,9 hPa 0,0 l/m 0,0 km/h N 0,3 C 2,8 C 0,8 km/h
18.02.2016 04:00 3,3 C 83 % 1017,6 hPa 0,0 l/m 0,0 km/h N 0,6 C 3,3 C 5,6 km/h
18.02.2016 05:00 3,3 C 83 % 1017,2 hPa 0,0 l/m 0,0 km/h N 0,7 C 3,3 C 4,0 km/h
18.02.2016 06:00 3,4 C 83 % 1016,8 hPa 0,0 l/m 0,0 km/h N 0,8 C 3,4 C 3,2 km/h
18.02.2016 07:00 3,5 C 83 % 1017,3 hPa 0,0 l/m 0,0 km/h N 0,9 C 3,5 C 1,6 km/h
18.02.2016 08:00 3,9 C 83 % 1017,6 hPa 0,0 l/m 0,8 km/h N 1,3 C 3,9 C 2,4 km/h
18.02.2016 09:00 4,3 C 83 % 1017,6 hPa 0,0 l/m 0,0 km/h N 1,6 C 4,3 C 4,0 km/h
18.02.2016 10:00 4,4 C 83 % 1017,8 hPa 0,0 l/m 0,8 km/h N 1,7 C 4,4 C 5,6 km/h
18.02.2016 11:00 4,3 C 84 % 1017,5 hPa 0,0 l/m 3,2 km/h N 1,8 C 4,3 C 9,7 km/h
18.02.2016 12:00 4,7 C 84 % 1016,8 hPa 0,0 l/m 1,6 km/h N 2,2 C 4,7 C 6,4 km/h
18.02.2016 13:00 5,0 C 84 % 1016,1 hPa 0,0 l/m 1,6 km/h N 2,5 C 5,0 C 6,4 km/h
18.02.2016 14:00 5,0 C 84 % 1015,3 hPa 0,0 l/m 1,0 km/h N 2,5 C 5,0 C 6,0 km/h
18.02.2016 15:00 4,9 C 84 % 1014,9 hPa 0,0 l/m 0,5 km/h N 2,4 C 4,9 C 4,0 km/h
18.02.2016 16:00 4,7 C 84 % 1014,8 hPa 0,0 l/m 0,9 km/h N 2,2 C 4,7 C 5,2 km/h
18.02.2016 17:00 4,5 C 84 % 1014,9 hPa 0,5 l/m 2,1 km/h N 2,0 C 4,5 C 7,6 km/h
18.02.2016 18:00 4,2 C 84 % 1014,8 hPa 1,3 l/m 0,8 km/h N 1,7 C 4,2 C 4,4 km/h
18.02.2016 19:00 4,1 C 84 % 1014,8 hPa 1,6 l/m 2,9 km/h N 1,6 C 4,1 C 10,9 km/h
18.02.2016 20:00 3,8 C 84 % 1014,5 hPa 1,3 l/m 4,1 km/h N 1,3 C 3,8 C 12,9 km/h
18.02.2016 21:00 3,7 C 84 % 1014,6 hPa 0,8 l/m 3,5 km/h N 1,3 C 3,7 C 12,5 km/h
18.02.2016 22:00 3,6 C 84 % 1014,4 hPa 1,0 l/m 2,8 km/h N 1,2 C 3,6 C 14,9 km/h
18.02.2016 23:00 3,4 C 84 % 1014,1 hPa 0,5 l/m 4,4 km/h N 1,0 C 3,4 C 16,9 km/h
19.02.2016 00:00 3,4 C 84 % 1013,9 hPa 0,3 l/m 5,3 km/h N 1,0 C 3,4 C 16,9 km/h
19.02.2016 01:00 3,4 C 84 % 1014,1 hPa 0,8 l/m 4,6 km/h N 1,0 C 3,4 C 18,1 km/h
19.02.2016 02:00 3,3 C 84 % 1013,9 hPa 2,6 l/m 7,4 km/h N 0,8 C 2,4 C 22,5 km/h
19.02.2016 03:00 3,3 C 84 % 1013,6 hPa 0,8 l/m 10,0 km/h N 0,8 C 0,2 C 28,6 km/h
19.02.2016 04:00 3,4 C 84 % 1013,4 hPa 0,3 l/m 14,2 km/h N 0,9 C -2,4 C 31,4 km/h
19.02.2016 05:00 3,2 C 84 % 1013,8 hPa 0,5 l/m 14,0 km/h N 0,7 C -2,6 C 33,0 km/h
19.02.2016 06:00 3,1 C 84 % 1014,3 hPa 0,3 l/m 14,8 km/h N 0,7 C -3,1 C 32,2 km/h
19.02.2016 07:00 3,0 C 84 % 1015,0 hPa 0,3 l/m 16,0 km/h N 0,6 C -3,8 C 37,5 km/h
19.02.2016 08:00 2,8 C 84 % 1015,7 hPa 1,0 l/m 16,9 km/h N 0,4 C -4,6 C 36,2 km/h
19.02.2016 09:00 2,9 C 84 % 1016,1 hPa 1,3 l/m 15,3 km/h N 0,4 C -3,6 C 33,0 km/h
19.02.2016 10:00 3,0 C 84 % 1016,7 hPa 0,3 l/m 16,2 km/h N 0,6 C -3,9 C 34,6 km/h
19.02.2016 11:00 3,3 C 84 % 1017,0 hPa 0,3 l/m 11,0 km/h N 0,9 C -0,5 C 24,5 km/h
19.02.2016 12:00 4,2 C 84 % 1017,1 hPa 0,0 l/m 8,1 km/h N 1,7 C 2,7 C 21,7 km/h
19.02.2016 13:00 5,2 C 83 % 1016,9 hPa 0,0 l/m 8,3 km/h N 2,5 C 3,6 C 21,3 km/h
19.02.2016 14:00 6,2 C 78 % 1017,0 hPa 0,0 l/m 8,0 km/h N 2,7 C 4,9 C 21,3 km/h
19.02.2016 15:00 6,9 C 75 % 1017,2 hPa 0,0 l/m 7,3 km/h N 2,7 C 6,2 C 19,7 km/h
19.02.2016 16:00 6,9 C 73 % 1017,7 hPa 0,0 l/m 4,7 km/h N 2,5 C 6,6 C 16,1 km/h
19.02.2016 17:00 6,7 C 72 % 1018,4 hPa 0,0 l/m 2,3 km/h N 2,0 C 6,7 C 10,9 km/h
19.02.2016 18:00 6,4 C 72 % 1019,2 hPa 0,0 l/m 4,5 km/h N 1,8 C 6,3 C 15,7 km/h
19.02.2016 19:00 6,1 C 74 % 1019,8 hPa 0,0 l/m 8,5 km/h N 1,7 C 4,4 C 22,1 km/h
19.02.2016 20:00 5,1 C 75 % 1020,2 hPa 0,0 l/m 11,2 km/h N 1,1 C 1,5 C 28,2 km/h
19.02.2016 21:00 4,7 C 77 % 1020,8 hPa 0,3 l/m 11,2 km/h N 1,0 C 0,9 C 25,4 km/h
19.02.2016 22:00 4,8 C 74 % 1021,1 hPa 0,0 l/m 9,6 km/h N 0,5 C 2,2 C 26,2 km/h
19.02.2016 23:00 4,6 C 73 % 1021,4 hPa 0,0 l/m 6,1 km/h N 0,3 C 4,0 C 18,5 km/h
20.02.2016 00:00 4,6 C 75 % 1021,7 hPa 0,0 l/m 5,2 km/h N 0,4 C 4,2 C 16,9 km/h
20.02.2016 01:00 4,8 C 75 % 1021,8 hPa 0,0 l/m 8,3 km/h N 0,6 C 3,2 C 21,3 km/h
20.02.2016 02:00 4,7 C 71 % 1022,0 hPa 0,0 l/m 8,6 km/h N -0,1 C 2,9 C 22,5 km/h
20.02.2016 03:00 4,7 C 71 % 1022,2 hPa 0,0 l/m 9,6 km/h N -0,2 C 2,0 C 22,9 km/h
20.02.2016 04:00 4,4 C 72 % 1022,7 hPa 0,0 l/m 6,1 km/h N -0,2 C 4,2 C 22,1 km/h
20.02.2016 05:00 4,2 C 72 % 1023,1 hPa 0,0 l/m 6,1 km/h N -0,5 C 3,9 C 18,9 km/h
20.02.2016 06:00 4,1 C 71 % 1023,5 hPa 0,0 l/m 4,7 km/h N -0,7 C 4,1 C 18,5 km/h
20.02.2016 07:00 4,1 C 65 % 1024,2 hPa 0,0 l/m 7,9 km/h N -2,0 C 2,7 C 24,9 km/h
20.02.2016 08:00 4,3 C 64 % 1024,7 hPa 0,0 l/m 10,0 km/h N -1,9 C 1,4 C 25,7 km/h
20.02.2016 09:00 4,9 C 65 % 1024,5 hPa 0,0 l/m 7,8 km/h N -1,0 C 3,7 C 21,7 km/h
20.02.2016 10:00 6,0 C 61 % 1023,9 hPa 0,0 l/m 7,2 km/h N -0,9 C 5,0 C 18,9 km/h
20.02.2016 11:00 7,0 C 54 % 1023,4 hPa 0,0 l/m 7,5 km/h N -1,6 C 6,1 C 22,1 km/h
20.02.2016 12:00 8,4 C 49 % 1022,5 hPa 0,0 l/m 7,8 km/h N -1,8 C 7,3 C 20,5 km/h
20.02.2016 13:00 9,4 C 44 % 1021,5 hPa 0,0 l/m 4,4 km/h N -2,1 C 9,4 C 16,9 km/h
20.02.2016 14:00 10,3 C 41 % 1020,7 hPa 0,0 l/m 2,6 km/h N -2,6 C 10,3 C 13,7 km/h
20.02.2016 15:00 10,3 C 39 % 1020,0 hPa 0,0 l/m 2,0 km/h N -3,0 C 10,3 C 10,9 km/h
20.02.2016 16:00 9,4 C 40 % 1019,2 hPa 0,0 l/m 0,6 km/h N -3,4 C 9,4 C 6,9 km/h
20.02.2016 17:00 8,4 C 47 % 1019,0 hPa 0,0 l/m 0,0 km/h N -2,4 C 8,4 C 1,6 km/h
20.02.2016 18:00 7,5 C 53 % 1018,7 hPa 0,0 l/m 0,0 km/h N -1,6 C 7,5 C 0,0 km/h
20.02.2016 19:00 6,9 C 56 % 1018,1 hPa 0,0 l/m 0,2 km/h N -1,2 C 6,9 C 2,0 km/h
20.02.2016 20:00 6,9 C 67 % 1017,9 hPa 0,0 l/m 1,3 km/h N 1,1 C 6,9 C 6,8 km/h
20.02.2016 21:00 6,3 C 78 % 1017,5 hPa 0,8 l/m 3,1 km/h N 2,7 C 6,3 C 13,7 km/h
20.02.2016 22:00 6,2 C 80 % 1016,9 hPa 1,8 l/m 5,9 km/h N 3,0 C 5,7 C 26,9 km/h
20.02.2016 23:00 6,0 C 81 % 1016,3 hPa 1,8 l/m 8,9 km/h N 3,0 C 4,0 C 26,5 km/h
21.02.2016 00:00 6,1 C 82 % 1015,7 hPa 1,0 l/m 4,2 km/h N 3,3 C 6,0 C 17,3 km/h
21.02.2016 01:00 6,0 C 83 % 1014,8 hPa 1,3 l/m 0,8 km/h N 3,3 C 6,0 C 6,0 km/h
21.02.2016 02:00 6,6 C 83 % 1013,8 hPa 1,0 l/m 1,1 km/h N 3,9 C 6,6 C 12,9 km/h
21.02.2016 03:00 8,3 C 83 % 1012,9 hPa 1,3 l/m 7,8 km/h N 5,5 C 7,0 C 24,5 km/h
21.02.2016 04:00 9,5 C 82 % 1012,6 hPa 0,8 l/m 9,3 km/h N 6,5 C 7,5 C 29,5 km/h
21.02.2016 05:00 9,8 C 82 % 1012,3 hPa 1,3 l/m 9,6 km/h N 6,9 C 7,7 C 25,4 km/h
21.02.2016 06:00 10,5 C 82 % 1012,3 hPa 1,3 l/m 11,1 km/h N 7,6 C 7,5 C 31,4 km/h
21.02.2016 07:00 11,5 C 80 % 1012,3 hPa 0,8 l/m 16,3 km/h N 8,1 C 6,6 C 43,8 km/h
21.02.2016 08:00 12,6 C 76 % 1012,6 hPa 0,0 l/m 16,7 km/h N 8,4 C 7,7 C 45,1 km/h
21.02.2016 09:00 13,5 C 71 % 1012,1 hPa 0,0 l/m 22,9 km/h N 8,3 C 7,1 C 49,5 km/h
21.02.2016 10:00 13,8 C 69 % 1012,6 hPa 0,0 l/m 22,0 km/h N 8,2 C 7,8 C 52,3 km/h
21.02.2016 11:00 13,8 C 70 % 1013,0 hPa 0,0 l/m 17,9 km/h N 8,5 C 8,8 C 47,9 km/h
21.02.2016 12:00 14,1 C 69 % 1013,2 hPa 0,0 l/m 16,8 km/h N 8,5 C 9,5 C 45,5 km/h
21.02.2016 13:00 14,3 C 69 % 1012,8 hPa 0,0 l/m 20,6 km/h N 8,7 C 8,7 C 45,9 km/h
21.02.2016 14:00 14,5 C 69 % 1012,5 hPa 0,0 l/m 21,3 km/h N 8,8 C 8,8 C 44,7 km/h
21.02.2016 15:00 14,2 C 70 % 1012,8 hPa 0,0 l/m 17,6 km/h N 8,9 C 9,5 C 45,4 km/h
21.02.2016 16:00 14,0 C 72 % 1012,7 hPa 0,0 l/m 13,9 km/h N 9,0 C 10,4 C 35,4 km/h
21.02.2016 17:00 14,5 C 70 % 1012,4 hPa 0,0 l/m 11,6 km/h N 9,1 C 11,8 C 34,2 km/h
21.02.2016 18:00 14,9 C 69 % 1012,2 hPa 0,0 l/m 11,5 km/h N 9,3 C 12,4 C 37,4 km/h
21.02.2016 19:00 15,4 C 66 % 1012,1 hPa 0,0 l/m 15,4 km/h N 8,9 C 11,6 C 40,3 km/h
21.02.2016 20:00 15,5 C 64 % 1011,9 hPa 0,0 l/m 16,4 km/h N 8,8 C 11,4 C 40,2 km/h
21.02.2016 21:00 15,3 C 64 % 1011,6 hPa 0,0 l/m 15,8 km/h N 8,6 C 11,3 C 43,1 km/h
21.02.2016 22:00 15,1 C 64 % 1011,7 hPa 0,0 l/m 14,8 km/h N 8,3 C 11,4 C 38,2 km/h
21.02.2016 23:00 14,6 C 64 % 1011,8 hPa 0,0 l/m 7,8 km/h N 7,8 C 13,8 C 26,6 km/h
Min-Datum _ 17.02.16 20.02.16 15.02.16 - 15.02.16 - 20.02.16 19.02.16 15.02.16
_ Min-Zeit 08:30 14:30 00:00 - 01:15 - 16:15 08:30 01:15
Minimum _ 2,4 C 39 % 996,1 hPa - 0,0 km/h - -3,7 C -5,1 C 0,0 km/h
Max-Datum _ 21.02.16 15.02.16 16.02.16 19.02.16 21.02.16 - 21.02.16 21.02.16 21.02.16
_ Max-Zeit 19:30 00:30 20:00 02:45 10:00 - 18:30 23:30 07:30
Maximum _ 15,6 C 84 % 1033,6 hPa 2,6 l/m 26,0 km/h
N
- 9,5 C 14,5 C 56,3 km/h
N
Durchschnitt _ 6,2 C 75 % 1018,0 hPa #31,5 l/m 6,1 km/h N 2,0 C 5,0 C 17,9 km/h